createdAt,value
2023-10-10T00:00:39.150Z,4.70
2023-10-10T00:03:07.437Z,4.95
2023-10-10T00:05:37.844Z,4.35
2023-10-10T00:08:06.831Z,4.47
2023-10-10T00:10:35.540Z,4.30
2023-10-10T00:13:05.370Z,4.93
2023-10-10T00:15:39.361Z,4.90
2023-10-10T00:18:12.172Z,5.30
2023-10-10T00:20:47.952Z,5.22
2023-10-10T00:23:18.025Z,4.55
2023-10-10T00:25:48.455Z,5.40
2023-10-10T00:28:19.566Z,5.88
2023-10-10T00:30:46.894Z,6.00
2023-10-10T00:33:17.689Z,6.22
2023-10-10T00:35:45.843Z,6.40
2023-10-10T00:38:18.565Z,6.10
2023-10-10T00:40:48.590Z,6.60
2023-10-10T00:43:23.429Z,7.15
2023-10-10T00:45:54.777Z,6.30
2023-10-10T00:48:25.798Z,7.22
2023-10-10T00:50:54.375Z,8.60
2023-10-10T00:53:24.037Z,9.38
2023-10-10T00:55:57.683Z,9.07
2023-10-10T00:58:37.143Z,8.48
2023-10-10T01:01:10.802Z,8.48
2023-10-10T01:03:43.611Z,7.65
2023-10-10T01:06:25.751Z,8.85
2023-10-10T01:08:59.325Z,8.90
2023-10-10T01:11:26.289Z,9.50
2023-10-10T01:13:54.035Z,9.15
2023-10-10T01:16:26.246Z,9.68
2023-10-10T01:18:58.433Z,8.23
2023-10-10T01:21:34.529Z,9.90
2023-10-10T01:24:12.682Z,9.00
2023-10-10T01:26:45.473Z,10.23
2023-10-10T01:29:25.486Z,10.38
2023-10-10T01:31:54.090Z,11.10
2023-10-10T01:34:34.377Z,9.57
2023-10-10T01:37:25.345Z,9.57
2023-10-10T01:40:24.847Z,9.50
2023-10-10T01:43:00.562Z,9.43
2023-10-10T01:45:31.113Z,10.88
2023-10-10T01:47:58.688Z,9.50
2023-10-10T01:50:28.381Z,10.38
2023-10-10T01:52:57.549Z,10.63
2023-10-10T01:55:26.014Z,10.05
2023-10-10T01:57:54.445Z,10.05
2023-10-10T02:00:28.256Z,9.27
2023-10-10T02:02:59.085Z,9.07
2023-10-10T02:05:38.575Z,9.48
2023-10-10T02:08:17.504Z,9.43
2023-10-10T02:10:51.341Z,9.30
2023-10-10T02:13:19.350Z,8.70
2023-10-10T02:15:46.278Z,8.63
2023-10-10T02:18:25.000Z,8.88
2023-10-10T02:20:52.484Z,9.02
2023-10-10T02:23:33.162Z,7.75
2023-10-10T02:26:04.638Z,8.00
2023-10-10T02:28:51.066Z,7.50
2023-10-10T02:31:20.735Z,7.35
2023-10-10T02:33:51.327Z,7.03
2023-10-10T02:36:30.913Z,7.57
2023-10-10T02:39:20.339Z,6.72
2023-10-10T02:41:52.110Z,7.60
2023-10-10T02:44:40.209Z,6.50
2023-10-10T02:47:08.948Z,6.32
2023-10-10T02:49:38.641Z,7.13
2023-10-10T02:52:09.197Z,6.47
2023-10-10T02:54:44.523Z,6.28
2023-10-10T02:57:26.372Z,7.35
2023-10-10T03:00:17.326Z,6.63
2023-10-10T03:02:55.307Z,6.93
2023-10-10T03:05:41.516Z,7.28
2023-10-10T03:08:35.611Z,7.57
2023-10-10T03:11:03.999Z,6.80
2023-10-10T03:14:00.923Z,7.55
2023-10-10T03:16:27.801Z,7.45
2023-10-10T03:19:03.692Z,7.43
2023-10-10T03:21:44.256Z,7.50
2023-10-10T03:24:29.630Z,8.18
2023-10-10T03:27:22.182Z,8.25
2023-10-10T03:29:51.103Z,6.90
2023-10-10T03:32:34.156Z,7.78
2023-10-10T03:37:55.339Z,7.78
2023-10-10T03:40:28.025Z,8.23
2023-10-10T03:43:13.666Z,7.63
2023-10-10T03:46:02.057Z,7.47
2023-10-10T03:48:48.542Z,8.15
2023-10-10T03:51:34.016Z,7.32
2023-10-10T03:54:19.607Z,8.02
2023-10-10T03:57:05.016Z,7.32
2023-10-10T03:59:50.791Z,7.43
2023-10-10T04:02:36.229Z,8.40
2023-10-10T04:05:27.788Z,7.72
2023-10-10T04:08:13.825Z,8.02
2023-10-10T04:11:05.920Z,8.38
2023-10-10T04:13:51.387Z,7.32
2023-10-10T04:16:36.901Z,8.48
2023-10-10T04:19:22.088Z,9.07
2023-10-10T04:22:07.882Z,9.20
2023-10-10T04:24:53.451Z,8.82
2023-10-10T04:27:38.735Z,8.85
2023-10-10T04:30:24.748Z,10.25
2023-10-10T04:33:10.176Z,9.38
2023-10-10T04:35:55.650Z,9.48
2023-10-10T04:38:40.966Z,8.63
2023-10-10T04:41:32.639Z,9.35
2023-10-10T04:44:18.902Z,9.98
2023-10-10T04:47:04.485Z,10.10
2023-10-10T04:49:49.950Z,10.98
2023-10-10T04:52:35.414Z,12.18
2023-10-10T04:55:20.797Z,12.48
2023-10-10T04:58:06.387Z,12.98
2023-10-10T05:00:51.997Z,13.63
2023-10-10T05:03:37.377Z,16.42
2023-10-10T05:06:23.540Z,15.73
2023-10-10T05:09:13.427Z,14.38
2023-10-10T05:11:58.884Z,15.30
2023-10-10T05:14:46.320Z,14.90
2023-10-10T05:17:32.101Z,17.50
2023-10-10T05:20:17.536Z,17.95
2023-10-10T05:23:03.129Z,17.42
2023-10-10T05:25:33.428Z,16.15
2023-10-10T05:28:00.605Z,18.50
2023-10-10T05:30:28.779Z,19.27
2023-10-10T05:33:03.809Z,18.77
2023-10-10T05:35:34.161Z,20.15
2023-10-10T05:38:01.846Z,17.85
2023-10-10T05:40:29.477Z,17.05
2023-10-10T05:42:58.676Z,20.98
2023-10-10T05:45:26.208Z,20.42
2023-10-10T05:47:53.665Z,21.27
2023-10-10T05:50:23.413Z,23.15
2023-10-10T05:52:50.570Z,21.63
2023-10-10T05:55:17.502Z,21.38
2023-10-10T05:57:44.745Z,22.75
2023-10-10T06:00:13.986Z,23.33
2023-10-10T06:02:45.913Z,23.08
2023-10-10T06:05:13.799Z,21.90
2023-10-10T06:07:46.717Z,21.23
2023-10-10T06:12:48.817Z,22.58
2023-10-10T06:15:19.267Z,22.58
2023-10-10T06:17:47.467Z,23.17
2023-10-10T06:20:23.448Z,23.33
2023-10-10T06:22:50.556Z,23.80
2023-10-10T06:25:20.348Z,24.40
2023-10-10T06:27:47.624Z,23.13
2023-10-10T06:30:20.502Z,25.10
2023-10-10T06:32:53.365Z,25.13
2023-10-10T06:37:53.325Z,25.00
2023-10-10T06:40:26.914Z,23.42
2023-10-10T06:43:03.412Z,24.27
2023-10-10T06:45:36.743Z,26.30
2023-10-10T06:48:04.342Z,23.55
2023-10-10T06:50:34.157Z,23.92
2023-10-10T06:53:01.817Z,23.27
2023-10-10T06:55:37.968Z,22.73
2023-10-10T06:58:07.457Z,25.77
2023-10-10T07:00:46.696Z,23.75
2023-10-10T07:03:32.019Z,24.92
2023-10-10T07:05:59.339Z,25.77
2023-10-10T07:08:26.593Z,25.63
2023-10-10T07:10:56.507Z,26.33
2023-10-10T07:13:30.429Z,25.55
2023-10-10T07:15:58.088Z,25.27
2023-10-10T07:18:25.496Z,26.25
2023-10-10T07:21:18.713Z,28.15
2023-10-10T07:24:04.236Z,28.55
2023-10-10T07:26:42.814Z,23.75
2023-10-10T07:29:51.670Z,27.55
2023-10-10T07:32:18.725Z,28.33
2023-10-10T07:34:52.509Z,25.05
2023-10-10T07:37:20.109Z,26.05
2023-10-10T07:40:05.525Z,29.15
2023-10-10T07:42:32.419Z,29.55
2023-10-10T07:44:59.909Z,32.35
2023-10-10T07:47:28.344Z,36.15
2023-10-10T07:50:01.184Z,34.13
2023-10-10T07:52:28.370Z,36.88
2023-10-10T07:55:03.523Z,40.90
2023-10-10T07:57:30.896Z,46.80
2023-10-10T07:59:59.817Z,42.90
2023-10-10T08:02:33.151Z,47.88
2023-10-10T08:05:11.123Z,45.17
2023-10-10T08:07:38.407Z,47.08
2023-10-10T08:10:15.269Z,46.80
2023-10-10T08:12:44.286Z,49.17
2023-10-10T08:15:20.823Z,47.67
2023-10-10T08:17:55.041Z,48.40
2023-10-10T08:20:32.880Z,51.33
2023-10-10T08:23:01.086Z,49.92
2023-10-10T08:25:28.638Z,48.45
2023-10-10T08:28:00.008Z,51.63
2023-10-10T08:30:28.136Z,49.30
2023-10-10T08:32:59.252Z,49.78
2023-10-10T08:35:30.886Z,47.70
2023-10-10T08:37:58.632Z,52.95
2023-10-10T08:40:35.037Z,51.72
2023-10-10T08:43:04.299Z,50.75
2023-10-10T08:45:41.559Z,54.25
2023-10-10T08:48:13.986Z,53.45
2023-10-10T08:50:42.621Z,51.85
2023-10-10T08:53:14.093Z,49.92
2023-10-10T08:55:41.925Z,49.25
2023-10-10T08:58:09.585Z,50.25
2023-10-10T09:00:38.890Z,49.33
2023-10-10T09:03:10.046Z,48.60
2023-10-10T09:05:38.097Z,50.45
2023-10-10T09:08:17.797Z,49.88
2023-10-10T09:10:49.066Z,43.20
2023-10-10T09:13:18.389Z,44.72
2023-10-10T09:15:56.190Z,46.15
2023-10-10T09:18:24.224Z,47.28
2023-10-10T09:20:52.106Z,47.08
2023-10-10T09:23:24.573Z,47.53
2023-10-10T09:25:59.402Z,47.83
2023-10-10T09:28:32.167Z,46.58
2023-10-10T09:31:04.385Z,45.47
2023-10-10T09:33:34.965Z,44.03
2023-10-10T09:36:10.156Z,44.95
2023-10-10T09:38:45.113Z,42.85
2023-10-10T09:41:28.873Z,44.80
2023-10-10T09:44:19.844Z,41.30
2023-10-10T09:47:13.357Z,42.40
2023-10-10T09:49:47.881Z,41.33
2023-10-10T09:52:41.789Z,41.67
2023-10-10T09:55:15.325Z,41.55
2023-10-10T09:57:59.455Z,42.90
2023-10-10T10:00:47.021Z,43.10
2023-10-10T10:03:28.368Z,39.53
2023-10-10T10:06:06.677Z,39.80
2023-10-10T10:08:44.466Z,41.03
2023-10-10T10:11:20.379Z,41.35
2023-10-10T10:14:21.897Z,41.17
2023-10-10T10:17:14.577Z,37.97
2023-10-10T10:19:48.815Z,40.58
2023-10-10T10:22:22.546Z,36.45
2023-10-10T10:27:35.600Z,36.28
2023-10-10T10:30:20.339Z,39.65
2023-10-10T10:32:59.778Z,38.53
2023-10-10T10:35:46.419Z,37.28
2023-10-10T10:38:13.367Z,38.30
2023-10-10T10:40:42.100Z,36.33
2023-10-10T10:43:15.304Z,37.13
2023-10-10T10:46:09.115Z,35.17
2023-10-10T10:48:37.273Z,36.08
2023-10-10T10:51:23.977Z,34.92
2023-10-10T10:54:00.773Z,34.25
2023-10-10T10:56:32.618Z,32.97
2023-10-10T10:59:14.128Z,31.83
2023-10-10T11:01:58.944Z,28.88
2023-10-10T11:04:35.006Z,31.80
2023-10-10T11:07:09.279Z,30.50
2023-10-10T11:10:07.491Z,30.02
2023-10-10T11:12:38.128Z,30.27
2023-10-10T11:15:09.278Z,29.67
2023-10-10T11:17:44.337Z,29.27
2023-10-10T11:20:30.553Z,27.67
2023-10-10T11:23:12.059Z,27.73
2023-10-10T11:25:46.592Z,27.15
2023-10-10T11:28:23.403Z,28.10
2023-10-10T11:30:51.966Z,29.08
2023-10-10T11:33:32.762Z,28.75
2023-10-10T11:36:30.667Z,28.77
2023-10-10T11:39:15.983Z,27.13
2023-10-10T11:41:42.885Z,26.05
2023-10-10T11:44:09.780Z,25.83
2023-10-10T11:46:39.802Z,27.92
2023-10-10T11:49:16.223Z,25.92
2023-10-10T11:51:43.558Z,27.58
2023-10-10T11:54:10.541Z,26.52
2023-10-10T11:56:37.408Z,27.15
2023-10-10T11:59:15.488Z,26.63
2023-10-10T12:02:08.452Z,27.98
2023-10-10T12:04:37.988Z,26.13
2023-10-10T12:07:07.392Z,26.83
2023-10-10T12:12:07.227Z,24.55
2023-10-10T12:14:34.163Z,24.52
2023-10-10T12:17:06.517Z,25.33
2023-10-10T12:19:38.587Z,23.80
2023-10-10T12:22:10.022Z,23.75
2023-10-10T12:24:37.238Z,24.48
2023-10-10T12:27:08.814Z,23.05
2023-10-10T12:29:41.593Z,22.60
2023-10-10T12:32:23.377Z,23.30
2023-10-10T12:34:51.608Z,21.42
2023-10-10T12:37:18.591Z,21.65
2023-10-10T12:39:46.912Z,21.98
2023-10-10T12:42:13.959Z,20.30
2023-10-10T12:44:40.945Z,19.63
2023-10-10T12:47:08.517Z,20.48
2023-10-10T12:49:45.356Z,21.13
2023-10-10T12:52:18.755Z,20.33
2023-10-10T12:54:47.981Z,20.23
2023-10-10T12:57:15.597Z,18.98
2023-10-10T12:59:47.656Z,18.02
2023-10-10T13:02:16.874Z,18.65
2023-10-10T13:04:48.159Z,18.88
2023-10-10T13:07:17.546Z,17.67
2023-10-10T13:09:47.510Z,18.73
2023-10-10T13:12:19.964Z,19.23
2023-10-10T13:14:52.043Z,20.40
2023-10-10T13:17:31.663Z,18.10
2023-10-10T13:20:00.046Z,17.40
2023-10-10T13:22:30.351Z,18.80
2023-10-10T13:24:57.549Z,19.10
2023-10-10T13:27:26.773Z,16.70
2023-10-10T13:29:53.804Z,17.73
2023-10-10T13:32:21.625Z,19.05
2023-10-10T13:34:49.338Z,18.02
2023-10-10T13:37:16.404Z,17.52
2023-10-10T13:39:49.391Z,17.02
2023-10-10T13:42:18.991Z,18.67
2023-10-10T13:44:46.547Z,17.25
2023-10-10T13:47:14.283Z,17.30
2023-10-10T13:49:47.219Z,16.58
2023-10-10T13:54:41.694Z,15.90
2023-10-10T13:57:08.960Z,15.77
2023-10-10T13:59:36.275Z,16.17
2023-10-10T14:02:05.931Z,16.30
2023-10-10T14:04:47.716Z,16.00
2023-10-10T14:07:18.364Z,15.35
2023-10-10T14:10:02.783Z,15.77
2023-10-10T14:12:34.184Z,15.43
2023-10-10T14:15:02.685Z,14.25
2023-10-10T14:17:30.823Z,14.48
2023-10-10T14:19:59.650Z,14.63
2023-10-10T14:22:28.198Z,13.48
2023-10-10T14:24:59.287Z,13.30
2023-10-10T14:27:27.739Z,14.50
2023-10-10T14:29:58.396Z,14.02
2023-10-10T14:32:38.080Z,13.90
2023-10-10T14:35:05.922Z,13.27
2023-10-10T14:37:45.572Z,13.40
2023-10-10T14:40:20.252Z,13.05
2023-10-10T14:42:47.100Z,13.15
2023-10-10T14:45:14.343Z,13.90
2023-10-10T14:47:45.017Z,13.57
2023-10-10T14:50:14.177Z,12.63
2023-10-10T14:52:48.381Z,13.00
2023-10-10T14:55:25.255Z,13.57
2023-10-10T14:57:57.066Z,13.45
2023-10-10T15:00:26.731Z,12.97
2023-10-10T15:02:55.172Z,13.77
2023-10-10T15:05:26.634Z,13.20
2023-10-10T15:07:54.948Z,12.90
2023-10-10T15:10:27.363Z,12.27
2023-10-10T15:12:55.055Z,12.57
2023-10-10T15:15:24.428Z,12.93
2023-10-10T15:17:52.084Z,12.07
2023-10-10T15:20:19.710Z,12.88
2023-10-10T15:22:47.197Z,11.85
2023-10-10T15:25:16.189Z,11.70
2023-10-10T15:27:43.325Z,12.45
2023-10-10T15:30:11.271Z,10.68
2023-10-10T15:32:48.387Z,11.65
2023-10-10T15:35:20.045Z,11.82
2023-10-10T15:37:47.386Z,11.50
2023-10-10T15:40:22.024Z,12.32
2023-10-10T15:42:53.176Z,11.68
2023-10-10T15:45:23.593Z,11.20
2023-10-10T15:47:55.811Z,12.23
2023-10-10T15:50:23.480Z,11.50
2023-10-10T15:52:50.976Z,12.10
2023-10-10T15:55:25.207Z,13.20
2023-10-10T15:57:54.237Z,12.75
2023-10-10T16:00:34.347Z,12.55
2023-10-10T16:03:08.253Z,12.02
2023-10-10T16:05:46.503Z,11.77
2023-10-10T16:08:13.764Z,12.80
2023-10-10T16:10:42.909Z,12.10
2023-10-10T16:13:10.369Z,12.60
2023-10-10T16:15:38.231Z,12.25
2023-10-10T16:18:06.049Z,13.07
2023-10-10T16:20:36.745Z,13.35
2023-10-10T16:23:04.499Z,13.13
2023-10-10T16:25:31.713Z,13.48
2023-10-10T16:27:59.202Z,16.33
2023-10-10T16:30:28.682Z,13.23
2023-10-10T16:32:57.058Z,13.90
2023-10-10T16:35:24.193Z,12.85
2023-10-10T16:37:51.236Z,13.23
2023-10-10T16:40:18.662Z,12.75
2023-10-10T16:42:46.732Z,13.00
2023-10-10T16:45:13.958Z,12.45
2023-10-10T16:47:43.528Z,14.60
2023-10-10T16:50:10.918Z,13.48
2023-10-10T16:52:41.854Z,13.10
2023-10-10T16:55:12.571Z,12.10
2023-10-10T16:57:39.645Z,14.07
2023-10-10T17:00:16.585Z,15.88
2023-10-10T17:02:47.177Z,14.60
2023-10-10T17:05:14.184Z,13.73
2023-10-10T17:07:43.851Z,16.25
2023-10-10T17:10:16.798Z,17.73
2023-10-10T17:12:44.213Z,14.95
2023-10-10T17:15:17.457Z,14.13
2023-10-10T17:17:45.858Z,13.10
2023-10-10T17:20:18.567Z,14.07
2023-10-10T17:22:47.647Z,14.27
2023-10-10T17:25:14.913Z,13.00
2023-10-10T17:27:42.831Z,14.88
2023-10-10T17:30:11.144Z,14.38
2023-10-10T17:32:41.543Z,15.32
2023-10-10T17:35:10.088Z,13.65
2023-10-10T17:37:37.872Z,13.23
2023-10-10T17:40:06.790Z,14.70
2023-10-10T17:42:36.061Z,14.60
2023-10-10T17:45:04.871Z,14.77
2023-10-10T17:47:32.087Z,14.27
2023-10-10T17:49:59.141Z,13.70
2023-10-10T17:52:26.473Z,15.73
2023-10-10T17:54:54.560Z,14.07
2023-10-10T17:57:23.256Z,13.30
2023-10-10T17:59:53.756Z,13.52
2023-10-10T18:02:24.036Z,15.50
2023-10-10T18:04:51.989Z,14.82
2023-10-10T18:07:23.049Z,11.43
2023-10-10T18:09:55.580Z,13.15
2023-10-10T18:14:54.477Z,12.85
2023-10-10T18:17:23.157Z,11.93
2023-10-10T18:19:50.875Z,12.18
2023-10-10T18:22:19.879Z,12.20
2023-10-10T18:24:48.422Z,13.15
2023-10-10T18:27:18.058Z,12.27
2023-10-10T18:29:45.157Z,12.07
2023-10-10T18:32:12.234Z,12.07
2023-10-10T18:34:42.629Z,12.15
2023-10-10T18:37:12.620Z,11.43
2023-10-10T18:39:39.804Z,11.65
2023-10-10T18:42:10.647Z,11.40
2023-10-10T18:44:38.693Z,10.88
2023-10-10T18:47:05.873Z,11.35
2023-10-10T18:49:34.862Z,12.18
2023-10-10T18:52:02.138Z,11.48
2023-10-10T18:54:31.807Z,10.88
2023-10-10T18:57:02.301Z,11.88
2023-10-10T18:59:29.495Z,11.27
2023-10-10T19:01:57.385Z,11.43
2023-10-10T19:04:24.707Z,11.52
2023-10-10T19:06:51.857Z,11.93
2023-10-10T19:09:19.450Z,11.80
2023-10-10T19:11:46.695Z,12.18
2023-10-10T19:14:14.314Z,10.68
2023-10-10T19:16:42.261Z,11.10
2023-10-10T19:19:09.250Z,11.13
2023-10-10T19:21:36.314Z,11.15
2023-10-10T19:24:08.416Z,10.75
2023-10-10T19:26:36.366Z,11.15
2023-10-10T19:29:05.209Z,10.15
2023-10-10T19:31:39.841Z,10.13
2023-10-10T19:34:11.032Z,10.30
2023-10-10T19:36:38.649Z,10.20
2023-10-10T19:39:11.048Z,9.98
2023-10-10T19:41:38.774Z,9.93
2023-10-10T19:44:07.305Z,9.70
2023-10-10T19:46:34.351Z,10.60
2023-10-10T19:49:02.169Z,9.43
2023-10-10T19:51:29.863Z,9.88
2023-10-10T19:53:56.834Z,8.77
2023-10-10T19:56:24.112Z,9.02
2023-10-10T19:58:51.033Z,9.82
2023-10-10T20:01:18.056Z,9.15
2023-10-10T20:03:47.067Z,8.23
2023-10-10T20:06:15.985Z,8.88
2023-10-10T20:08:42.942Z,8.00
2023-10-10T20:11:09.941Z,9.07
2023-10-10T20:13:36.942Z,7.53
2023-10-10T20:16:13.134Z,8.02
2023-10-10T20:18:45.100Z,8.02
2023-10-10T20:21:13.542Z,8.15
2023-10-10T20:23:44.083Z,7.82
2023-10-10T20:26:20.563Z,7.60
2023-10-10T20:28:50.891Z,7.80
2023-10-10T20:31:22.919Z,7.45
2023-10-10T20:33:50.123Z,7.43
2023-10-10T20:36:17.699Z,7.10
2023-10-10T20:38:45.218Z,7.75
2023-10-10T20:41:13.711Z,7.65
2023-10-10T20:43:41.612Z,7.38
2023-10-10T20:46:09.228Z,7.00
2023-10-10T20:48:36.461Z,7.28
2023-10-10T20:51:07.186Z,7.47
2023-10-10T20:53:34.271Z,7.45
2023-10-10T20:56:03.504Z,6.82
2023-10-10T20:58:30.585Z,7.40
2023-10-10T21:00:57.589Z,6.35
2023-10-10T21:03:24.753Z,7.00
2023-10-10T21:05:51.899Z,6.40
2023-10-10T21:08:19.301Z,6.10
2023-10-10T21:10:46.722Z,6.68
2023-10-10T21:13:14.381Z,6.50
2023-10-10T21:15:42.780Z,5.93
2023-10-10T21:18:10.041Z,5.80
2023-10-10T21:20:51.930Z,6.00
2023-10-10T21:23:26.326Z,6.28
2023-10-10T21:25:54.387Z,6.70
2023-10-10T21:28:23.037Z,6.28
2023-10-10T21:30:49.998Z,6.10
2023-10-10T21:33:18.502Z,5.47
2023-10-10T21:35:45.692Z,6.00
2023-10-10T21:38:12.775Z,6.57
2023-10-10T21:40:41.133Z,5.97
2023-10-10T21:43:08.513Z,6.93
2023-10-10T21:45:40.089Z,6.45
2023-10-10T21:48:10.862Z,5.90
2023-10-10T21:50:41.834Z,5.22
2023-10-10T21:53:09.069Z,6.15
2023-10-10T21:55:38.578Z,5.97
2023-10-10T21:58:06.439Z,6.10
2023-10-10T22:00:33.938Z,5.70
2023-10-10T22:03:05.351Z,5.68
2023-10-10T22:05:33.269Z,5.90
2023-10-10T22:08:01.222Z,6.22
2023-10-10T22:10:33.687Z,5.93
2023-10-10T22:13:07.576Z,5.38
2023-10-10T22:15:36.161Z,4.95
2023-10-10T22:18:06.977Z,5.85
2023-10-10T22:20:37.487Z,6.10
2023-10-10T22:23:07.256Z,5.32
2023-10-10T22:25:36.119Z,5.07
2023-10-10T22:28:05.337Z,5.47
2023-10-10T22:30:38.827Z,5.88
2023-10-10T22:33:11.215Z,5.80
2023-10-10T22:35:38.912Z,4.97
2023-10-10T22:38:12.306Z,6.55
2023-10-10T22:40:39.400Z,5.00
2023-10-10T22:43:06.671Z,6.38
2023-10-10T22:45:38.318Z,5.55
2023-10-10T22:48:09.625Z,6.00
2023-10-10T22:50:37.181Z,5.82
2023-10-10T22:53:05.589Z,5.90
2023-10-10T22:55:36.944Z,6.25
2023-10-10T22:58:09.004Z,5.97
2023-10-10T23:00:39.850Z,5.80
2023-10-10T23:03:12.401Z,5.70
2023-10-10T23:05:40.928Z,5.68
2023-10-10T23:08:08.377Z,5.82
2023-10-10T23:10:36.007Z,5.75
2023-10-10T23:13:03.334Z,5.40
2023-10-10T23:15:30.412Z,5.78
2023-10-10T23:18:00.579Z,5.97
2023-10-10T23:20:29.451Z,5.65
2023-10-10T23:22:57.803Z,5.30
2023-10-10T23:25:28.078Z,6.30
2023-10-10T23:27:57.198Z,6.32
2023-10-10T23:30:28.480Z,6.03
2023-10-10T23:33:00.371Z,5.80
2023-10-10T23:35:28.478Z,6.03
2023-10-10T23:37:59.291Z,5.57
2023-10-10T23:40:26.207Z,6.22
2023-10-10T23:42:53.987Z,6.63
2023-10-10T23:45:26.438Z,5.70
2023-10-10T23:47:56.241Z,6.32
2023-10-10T23:50:27.448Z,7.18
2023-10-10T23:52:56.781Z,6.63
2023-10-10T23:55:30.078Z,6.57
2023-10-10T23:58:01.714Z,6.45
